Time;durP1;ratioP1;P1;durP2;ratioP2;P2;SDS_P1;SDS_P2;PMS_P1;PMS_P2;Temp;Humidity;BMP_temperature;BMP_pressure;BME280_temperature;BME280_humidity;BME280_pressure;Samples;Min_cycle;Max_cycle;Signal;HPM_P1;HPM_P2
2022/12/18 00:02:11;;;;;;;1.70;1.60;;;;;;;-5.04;100.00;101639.34;5018847;28;20945;-49
2022/12/18 00:04:38;;;;;;;3.30;3.10;;;;;;;-5.13;100.00;101633.63;5019547;28;20981;-49
2022/12/18 00:07:04;;;;;;;2.20;1.23;;;;;;;-5.18;100.00;101648.03;5025725;28;20448;-49
2022/12/18 00:09:31;;;;;;;1.50;1.50;;;;;;;-5.59;100.00;101649.16;5018233;28;20473;-50
2022/12/18 00:12:05;;;;;;;0.87;0.87;;;;;;;-5.60;100.00;101647.38;5027433;28;20452;-50
2022/12/18 00:14:43;;;;;;;2.23;2.13;;;;;;;-5.59;100.00;101653.44;5031692;28;20459;-49
2022/12/18 00:17:10;;;;;;;0.43;0.43;;;;;;;-5.14;100.00;101658.66;5028435;28;20451;-51
2022/12/18 00:19:36;;;;;;;3.60;2.63;;;;;;;-5.45;100.00;101653.44;5024993;28;20472;-49
2022/12/18 00:22:03;;;;;;;1.80;0.97;;;;;;;-5.53;100.00;101648.59;5029349;28;20488;-50
2022/12/18 00:24:29;;;;;;;0.77;0.77;;;;;;;-5.42;100.00;101645.84;5035447;28;20453;-52
2022/12/18 00:26:56;;;;;;;2.83;2.63;;;;;;;-5.39;100.00;101650.28;5028022;28;20451;-49
2022/12/18 00:29:22;;;;;;;18.53;3.17;;;;;;;-5.32;100.00;101655.03;5025181;28;21030;-49
2022/12/18 00:31:48;;;;;;;2.03;1.93;;;;;;;-5.20;100.00;101663.50;5028754;28;20535;-49
2022/12/18 00:34:15;;;;;;;0.87;0.87;;;;;;;-4.78;100.00;101653.75;5031529;28;20870;-49
2022/12/18 00:36:42;;;;;;;2.67;2.30;;;;;;;-5.07;100.00;101655.63;5028389;28;20827;-51
2022/12/18 00:39:10;;;;;;;2.00;1.20;;;;;;;-5.15;100.00;101663.75;5024828;28;20497;-49
2022/12/18 00:44:22;;;;;;;1.57;1.57;;;;;;;-4.64;100.00;101652.78;5025023;28;20445;-49
2022/12/18 00:46:48;;;;;;;1.07;1.07;;;;;;;-4.69;100.00;101642.97;5037964;28;20456;-50
2022/12/18 00:49:17;;;;;;;8.30;1.60;;;;;;;-5.04;100.00;101635.84;5027182;28;20476;-49
2022/12/18 00:51:45;;;;;;;1.93;1.80;;;;;;;-4.98;100.00;101642.25;5024707;28;20479;-49
2022/12/18 00:54:11;;;;;;;2.67;2.57;;;;;;;-5.01;100.00;101655.06;5036543;28;20451;-49
2022/12/18 00:56:39;;;;;;;2.63;1.90;;;;;;;-5.13;100.00;101663.03;5037657;28;20458;-49
2022/12/18 00:59:14;;;;;;;6.03;4.13;;;;;;;-5.11;100.00;101656.22;5025666;28;20467;-49
2022/12/18 01:01:40;;;;;;;0.57;0.57;;;;;;;-5.13;100.00;101644.88;5031286;28;20451;-49
2022/12/18 01:04:07;;;;;;;4.77;4.37;;;;;;;-5.09;100.00;101653.72;5026708;28;20459;-49
2022/12/18 01:06:34;;;;;;;1.00;0.93;;;;;;;-5.08;100.00;101658.09;5034723;28;20842;-51
2022/12/18 01:09:02;;;;;;;0.73;0.67;;;;;;;-5.02;100.00;101657.56;5027270;28;20468;-49
2022/12/18 01:11:28;;;;;;;2.93;2.30;;;;;;;-4.96;100.00;101644.94;5024708;28;20499;-49
2022/12/18 01:13:55;;;;;;;1.93;1.80;;;;;;;-4.99;100.00;101637.88;5029470;28;20452;-50
2022/12/18 01:16:22;;;;;;;1.93;1.07;;;;;;;-5.10;100.00;101644.16;5031104;28;20458;-49
2022/12/18 01:18:53;;;;;;;3.70;1.13;;;;;;;-5.20;100.00;101642.78;5027295;28;20475;-50
2022/12/18 01:21:21;;;;;;;3.17;2.97;;;;;;;-5.19;100.00;101654.94;5023768;28;20823;-50
2022/12/18 01:23:51;;;;;;;0.50;0.50;;;;;;;-5.42;100.00;101661.38;5028603;28;20980;-50
2022/12/18 01:26:18;;;;;;;1.20;1.20;;;;;;;-5.72;100.00;101664.78;5031161;28;20464;-51
2022/12/18 01:28:44;;;;;;;2.37;2.27;;;;;;;-5.72;100.00;101668.25;5014828;28;20813;-50
2022/12/18 01:31:20;;;;;;;4.20;3.60;;;;;;;-6.11;100.00;101671.09;5028477;28;20506;-50
2022/12/18 01:33:51;;;;;;;5.40;4.77;;;;;;;-6.03;100.00;101680.19;5027090;28;20447;-49
2022/12/18 01:36:26;;;;;;;7.93;2.93;;;;;;;-5.98;100.00;101677.09;5024676;28;20511;-51
2022/12/18 01:38:53;;;;;;;2.83;2.63;;;;;;;-5.99;100.00;101683.06;5010451;28;20832;-49
2022/12/18 01:41:25;;;;;;;3.10;2.83;;;;;;;-6.13;100.00;101680.47;5022020;28;20458;-49
2022/12/18 01:43:56;;;;;;;2.23;2.13;;;;;;;-6.21;100.00;101687.75;5021430;28;20503;-49
2022/12/18 01:46:27;;;;;;;1.23;0.80;;;;;;;-6.17;100.00;101675.88;5034826;28;20467;-49
2022/12/18 01:48:57;;;;;;;0.83;0.83;;;;;;;-6.17;100.00;101674.19;5028078;28;20483;-49
2022/12/18 01:51:25;;;;;;;3.90;1.60;;;;;;;-6.03;100.00;101668.19;5020240;28;20444;-51
2022/12/18 01:53:51;;;;;;;2.57;2.40;;;;;;;-5.72;100.00;101682.91;5031245;28;20456;-49
2022/12/18 01:56:20;;;;;;;1.40;1.40;;;;;;;-5.77;100.00;101690.38;5030947;28;20470;-49
2022/12/18 01:59:01;;;;;;;0.93;0.93;;;;;;;-5.63;100.00;101692.88;5020972;28;20460;-49
2022/12/18 02:01:29;;;;;;;5.07;3.27;;;;;;;-5.67;100.00;101679.75;5003952;28;20452;-50
2022/12/18 02:04:14;;;;;;;1.17;1.13;;;;;;;-5.53;100.00;101669.31;5004008;28;20558;-49
2022/12/18 02:06:42;;;;;;;0.50;0.50;;;;;;;-5.69;100.00;101680.47;5020629;28;20463;-49
2022/12/18 02:09:20;;;;;;;1.37;1.37;;;;;;;-5.92;100.00;101691.19;5024530;28;21016;-49
2022/12/18 02:11:56;;;;;;;1.60;1.50;;;;;;;-5.65;100.00;101682.44;5020258;28;20514;-52
2022/12/18 02:14:42;;;;;;;1.57;1.53;;;;;;;-5.76;100.00;101684.38;5021084;28;20460;-50
2022/12/18 02:17:19;;;;;;;3.70;1.70;;;;;;;-5.49;100.00;101673.88;5023181;28;20452;-50
2022/12/18 02:20:08;;;;;;;1.37;1.30;;;;;;;-5.83;100.00;101668.41;5020577;28;20525;-49
2022/12/18 02:22:57;;;;;;;6.80;2.63;;;;;;;-6.13;100.00;101673.59;5024947;28;20483;-50
2022/12/18 02:25:58;;;;;;;16.13;2.67;;;;;;;-5.95;100.00;101680.66;5030676;28;20505;-50
2022/12/18 02:28:31;;;;;;;0.70;0.70;;;;;;;-6.31;100.00;101672.44;5022214;28;20502;-52
2022/12/18 02:31:00;;;;;;;2.20;2.10;;;;;;;-6.39;100.00;101664.25;5020022;28;20456;-49
2022/12/18 02:33:30;;;;;;;1.60;1.50;;;;;;;-6.33;100.00;101667.19;5024179;28;20445;-49
2022/12/18 02:35:59;;;;;;;2.90;2.80;;;;;;;-6.50;100.00;101656.63;5026799;28;20457;-49
2022/12/18 02:38:28;;;;;;;0.60;0.60;;;;;;;-6.22;100.00;101660.09;5023962;28;20487;-49
2022/12/18 02:40:54;;;;;;;1.63;1.27;;;;;;;-6.01;100.00;101657.91;5020453;28;20832;-50
2022/12/18 02:43:21;;;;;;;3.50;2.77;;;;;;;-5.94;100.00;101661.75;5025975;28;20554;-55
2022/12/18 02:45:54;;;;;;;7.43;3.77;;;;;;;-6.02;100.00;101651.84;5037143;28;21020;-54
2022/12/18 02:48:29;;;;;;;1.60;1.10;;;;;;;-5.78;100.00;101654.03;5044777;28;20467;-55
2022/12/18 02:51:39;;;;;;;4.00;1.80;;;;;;;-5.74;100.00;101649.16;5029796;28;20483;-55
2022/12/18 02:54:18;;;;;;;4.53;1.73;;;;;;;-5.73;100.00;101648.34;5034011;28;20451;-55
2022/12/18 02:56:55;;;;;;;9.40;2.10;;;;;;;-5.54;100.00;101639.94;5022858;28;20452;-53
2022/12/18 02:59:33;;;;;;;1.20;1.20;;;;;;;-5.59;100.00;101643.09;5027172;28;20464;-54
2022/12/18 03:02:20;;;;;;;0.90;0.60;;;;;;;-5.82;100.00;101645.22;5030122;28;20892;-54
2022/12/18 03:05:06;;;;;;;3.27;2.00;;;;;;;-5.64;100.00;101647.09;5028988;28;21072;-55
2022/12/18 03:07:42;;;;;;;3.43;2.03;;;;;;;-5.55;100.00;101648.53;5026740;28;20444;-54
2022/12/18 03:10:13;;;;;;;0.73;0.73;;;;;;;-5.72;100.00;101644.97;5022891;28;20521;-55
2022/12/18 03:12:49;;;;;;;0.73;0.73;;;;;;;-6.01;100.00;101645.88;5024294;28;20452;-55
2022/12/18 03:15:24;;;;;;;0.40;0.40;;;;;;;-5.80;100.00;101653.06;5029100;28;20487;-55
2022/12/18 03:17:59;;;;;;;1.33;1.30;;;;;;;-5.98;100.00;101651.22;5027776;28;20447;-53
2022/12/18 03:20:29;;;;;;;3.67;2.43;;;;;;;-6.03;100.00;101647.47;5022969;28;21002;-55
2022/12/18 03:23:02;;;;;;;1.07;1.07;;;;;;;-5.93;100.00;101650.59;5027242;28;20514;-55
2022/12/18 03:25:32;;;;;;;1.33;1.33;;;;;;;-6.06;100.00;101646.38;5023787;28;20456;-54
2022/12/18 03:28:03;;;;;;;4.80;3.13;;;;;;;-5.97;100.00;101655.59;5010496;28;20960;-53
2022/12/18 03:30:32;;;;;;;3.27;3.07;;;;;;;-6.09;100.00;101648.78;5023225;28;20957;-53
2022/12/18 03:33:08;;;;;;;2.43;1.90;;;;;;;-6.24;100.00;101651.34;5028608;28;20448;-55
2022/12/18 03:35:39;;;;;;;1.20;1.20;;;;;;;-6.60;100.00;101653.44;5020216;28;20456;-53
2022/12/18 03:38:06;;;;;;;1.33;1.33;;;;;;;-6.39;100.00;101645.25;5021672;28;20446;-53
2022/12/18 03:40:45;;;;;;;9.03;1.90;;;;;;;-6.34;100.00;101652.47;5021314;28;20448;-55
2022/12/18 03:43:33;;;;;;;2.07;1.90;;;;;;;-6.33;100.00;101655.94;5026230;28;20582;-55
2022/12/18 03:46:09;;;;;;;4.13;1.13;;;;;;;-6.21;100.00;101654.09;5031796;28;20448;-54
2022/12/18 03:48:44;;;;;;;3.73;3.43;;;;;;;-6.36;100.00;101659.25;5034207;28;20467;-55
2022/12/18 03:51:43;;;;;;;1.03;1.03;;;;;;;-6.80;100.00;101658.19;5026464;28;20459;-55
2022/12/18 03:54:11;;;;;;;1.93;1.83;;;;;;;-6.98;100.00;101666.56;5016599;28;20448;-54
2022/12/18 03:56:42;;;;;;;2.87;1.40;;;;;;;-7.18;100.00;101657.53;5026777;28;20866;-54
2022/12/18 03:59:12;;;;;;;4.10;3.33;;;;;;;-7.50;100.00;101654.56;5021216;28;20479;-54
2022/12/18 04:01:42;;;;;;;3.80;1.40;;;;;;;-7.08;100.00;101653.84;5002183;28;20457;-55
2022/12/18 04:04:12;;;;;;;4.50;2.63;;;;;;;-6.78;100.00;101643.66;5032285;28;20483;-55
2022/12/18 04:06:39;;;;;;;2.27;2.17;;;;;;;-6.87;100.00;101637.13;5019916;28;20935;-53
2022/12/18 04:09:06;;;;;;;6.13;1.70;;;;;;;-7.05;100.00;101645.41;5023409;28;20977;-54
2022/12/18 04:11:33;;;;;;;5.87;2.47;;;;;;;-7.17;100.00;101640.34;5026719;28;20452;-54
2022/12/18 04:13:59;;;;;;;2.30;2.20;;;;;;;-7.20;100.00;101642.75;5023176;28;20546;-55
2022/12/18 04:16:31;;;;;;;0.73;0.73;;;;;;;-7.39;100.00;101638.09;5019819;28;20452;-54
2022/12/18 04:18:57;;;;;;;3.00;1.47;;;;;;;-7.48;100.00;101638.38;5022689;28;20851;-54
2022/12/18 04:21:24;;;;;;;0.90;0.90;;;;;;;-7.53;100.00;101636.31;5026413;28;20487;-55
2022/12/18 04:23:50;;;;;;;1.60;1.60;;;;;;;-7.35;100.00;101640.06;5027561;28;20847;-55
2022/12/18 04:26:17;;;;;;;2.10;2.00;;;;;;;-7.42;100.00;101645.59;5019856;28;20456;-55
2022/12/18 04:28:43;;;;;;;0.30;0.30;;;;;;;-7.32;100.00;101641.94;5027198;28;20468;-55
2022/12/18 04:31:09;;;;;;;0.57;0.57;;;;;;;-7.48;100.00;101648.69;5019693;28;20510;-55
2022/12/18 04:33:36;;;;;;;6.87;2.47;;;;;;;-7.54;100.00;101645.72;5025693;28;20444;-54
2022/12/18 04:36:04;;;;;;;7.60;2.93;;;;;;;-7.61;100.00;101640.06;5019179;28;20829;-53
2022/12/18 04:38:30;;;;;;;1.13;1.13;;;;;;;-7.63;100.00;101645.13;5025501;28;20842;-54
2022/12/18 04:40:57;;;;;;;1.63;1.63;;;;;;;-7.79;100.00;101648.38;5019220;28;20963;-54
2022/12/18 04:43:23;;;;;;;4.63;3.00;;;;;;;-7.93;100.00;101654.31;5023082;28;20484;-55
2022/12/18 04:45:50;;;;;;;1.17;1.17;;;;;;;-7.85;99.99;101647.94;5029570;28;20452;-55
2022/12/18 04:48:16;;;;;;;9.93;1.80;;;;;;;-7.88;100.00;101654.59;5032506;28;20906;-55
2022/12/18 04:50:42;;;;;;;1.63;1.63;;;;;;;-7.88;100.00;101649.44;5019196;28;20458;-54
2022/12/18 04:53:09;;;;;;;3.70;2.47;;;;;;;-7.83;100.00;101660.94;5025204;28;20454;-54
2022/12/18 04:55:35;;;;;;;0.47;0.47;;;;;;;-7.97;100.00;101672.03;5019174;28;20483;-55
2022/12/18 04:58:02;;;;;;;1.20;1.20;;;;;;;-8.03;100.00;101672.53;5022530;28;20453;-54
2022/12/18 05:00:28;;;;;;;0.40;0.40;;;;;;;-8.00;100.00;101670.13;5029764;28;20938;-55
2022/12/18 05:02:55;;;;;;;2.00;1.90;;;;;;;-8.02;100.00;101676.00;5027925;28;20546;-54
2022/12/18 05:05:21;;;;;;;1.03;1.03;;;;;;;-7.91;100.00;101672.47;5029983;28;20467;-54
2022/12/18 05:07:48;;;;;;;3.10;1.63;;;;;;;-7.85;100.00;101668.59;5028084;28;20454;-55
2022/12/18 05:10:14;;;;;;;1.27;1.27;;;;;;;-7.86;100.00;101660.75;5022662;28;20509;-55
2022/12/18 05:12:57;;;;;;;1.60;1.60;;;;;;;-7.79;100.00;101662.97;5023857;28;20449;-54
2022/12/18 05:15:30;;;;;;;1.37;1.27;;;;;;;-7.64;100.00;101650.19;5027150;28;20460;-54
2022/12/18 05:17:58;;;;;;;2.23;2.13;;;;;;;-7.80;100.00;101651.75;5028900;28;20947;-54
2022/12/18 05:20:26;;;;;;;2.10;2.00;;;;;;;-7.63;100.00;101650.28;5025699;28;20455;-53
2022/12/18 05:22:53;;;;;;;1.13;1.03;;;;;;;-7.48;100.00;101650.38;5031199;28;20451;-54
2022/12/18 05:25:20;;;;;;;3.83;3.67;;;;;;;-7.12;100.00;101654.47;5026246;28;20812;-55
2022/12/18 05:27:47;;;;;;;0.80;0.80;;;;;;;-7.14;100.00;101655.13;5029220;28;20460;-54
2022/12/18 05:30:15;;;;;;;1.43;0.77;;;;;;;-7.18;100.00;101654.94;5024066;28;20906;-55
2022/12/18 05:32:41;;;;;;;1.43;1.43;;;;;;;-7.08;100.00;101642.63;5029424;28;20452;-54
2022/12/18 05:35:10;;;;;;;3.87;1.77;;;;;;;-6.57;100.00;101645.03;5022188;28;20448;-55
2022/12/18 05:37:37;;;;;;;1.03;1.03;;;;;;;-6.92;100.00;101643.69;5029500;28;20457;-55
2022/12/18 05:40:09;;;;;;;1.13;1.13;;;;;;;-6.91;100.00;101653.22;5026548;28;20484;-53
2022/12/18 05:42:36;;;;;;;2.30;1.00;;;;;;;-7.02;100.00;101656.81;5022200;28;20958;-55
2022/12/18 05:45:02;;;;;;;4.33;1.50;;;;;;;-7.06;100.00;101647.09;5009769;28;21066;-54
2022/12/18 05:47:29;;;;;;;1.33;1.33;;;;;;;-7.13;100.00;101651.75;5035413;28;20451;-54
2022/12/18 05:49:56;;;;;;;5.70;2.90;;;;;;;-7.24;100.00;101653.69;5024208;28;20479;-54
2022/12/18 05:52:23;;;;;;;4.10;1.57;;;;;;;-7.05;100.00;101653.16;5028680;28;20854;-55
2022/12/18 05:54:49;;;;;;;0.40;0.40;;;;;;;-7.10;100.00;101663.22;5005914;28;20453;-55
2022/12/18 05:57:15;;;;;;;0.30;0.30;;;;;;;-7.02;100.00;101661.97;5028579;28;20448;-55
2022/12/18 05:59:42;;;;;;;1.17;1.17;;;;;;;-7.21;100.00;101664.19;5027372;28;20475;-54
2022/12/18 06:02:08;;;;;;;0.90;0.90;;;;;;;-7.31;100.00;101664.38;5022648;28;20942;-55
2022/12/18 06:04:35;;;;;;;0.87;0.87;;;;;;;-7.15;100.00;101677.50;5033219;28;20608;-52
2022/12/18 06:07:04;;;;;;;2.90;2.80;;;;;;;-7.28;100.00;101664.59;5032660;28;20462;-54
2022/12/18 06:09:31;;;;;;;4.90;2.73;;;;;;;-7.46;100.00;101670.34;5021589;28;20480;-53
2022/12/18 06:11:58;;;;;;;0.77;0.77;;;;;;;-7.40;100.00;101666.38;5028106;28;20472;-53
2022/12/18 06:14:25;;;;;;;0.70;0.70;;;;;;;-7.37;100.00;101676.91;5021905;28;20449;-53
2022/12/18 06:16:52;;;;;;;0.53;0.53;;;;;;;-7.28;100.00;101675.81;5028059;28;20457;-53
2022/12/18 06:19:18;;;;;;;1.33;1.23;;;;;;;-7.35;100.00;101680.50;5027805;28;20471;-54
2022/12/18 06:21:45;;;;;;;0.30;0.30;;;;;;;-7.52;100.00;101689.72;5021012;28;20812;-52
2022/12/18 06:24:11;;;;;;;0.80;0.80;;;;;;;-7.52;100.00;101680.28;5022796;28;20484;-53
2022/12/18 06:26:38;;;;;;;3.20;1.33;;;;;;;-7.51;100.00;101692.41;5027578;28;20830;-53
2022/12/18 06:29:05;;;;;;;2.53;1.70;;;;;;;-7.28;100.00;101698.16;5027400;28;20471;-54
2022/12/18 06:31:32;;;;;;;0.40;0.40;;;;;;;-7.58;100.00;101699.63;4997218;28;20456;-54
2022/12/18 06:33:58;;;;;;;1.13;1.03;;;;;;;-7.70;100.00;101704.84;5028770;28;20523;-53
2022/12/18 06:36:25;;;;;;;1.57;1.20;;;;;;;-7.89;100.00;101720.78;5020275;28;20449;-54
2022/12/18 06:38:52;;;;;;;0.63;0.63;;;;;;;-7.85;100.00;101727.03;5026589;28;20845;-51
2022/12/18 06:41:21;;;;;;;1.43;1.33;;;;;;;-7.69;100.00;101711.78;5023285;28;20455;-52
2022/12/18 06:43:47;;;;;;;0.40;0.40;;;;;;;-7.64;100.00;101713.00;5032400;28;20483;-52
2022/12/18 06:46:14;;;;;;;2.40;1.90;;;;;;;-7.50;100.00;101717.41;5038398;28;20454;-52
2022/12/18 06:48:41;;;;;;;4.80;2.63;;;;;;;-7.99;100.00;101714.88;5031554;28;20995;-53
2022/12/18 06:51:07;;;;;;;4.00;1.07;;;;;;;-7.97;100.00;101713.28;5021745;28;20452;-53
2022/12/18 06:53:34;;;;;;;0.83;0.83;;;;;;;-8.14;100.00;101713.03;5029259;28;20798;-52
2022/12/18 06:56:04;;;;;;;3.37;3.10;;;;;;;-8.26;100.00;101719.03;5014809;28;20830;-52
2022/12/18 06:58:36;;;;;;;0.23;0.23;;;;;;;-8.41;100.00;101718.91;5026079;28;21021;-53
2022/12/18 07:01:04;;;;;;;1.13;1.03;;;;;;;-8.29;100.00;101719.72;5024244;28;20514;-53
2022/12/18 07:03:31;;;;;;;2.00;1.90;;;;;;;-8.12;100.00;101710.56;5020290;28;21017;-52
2022/12/18 07:05:58;;;;;;;4.30;3.90;;;;;;;-8.41;100.00;101713.75;5029731;28;20456;-51
2022/12/18 07:08:24;;;;;;;0.77;0.77;;;;;;;-8.38;100.00;101706.22;5028924;28;20472;-52
2022/12/18 07:10:51;;;;;;;0.50;0.50;;;;;;;-8.57;100.00;101716.03;5019462;28;20451;-52
2022/12/18 07:13:22;;;;;;;3.43;3.13;;;;;;;-8.43;100.00;101720.47;5018581;28;20457;-52
2022/12/18 07:15:48;;;;;;;0.33;0.33;;;;;;;-8.62;100.00;101717.41;5023916;28;20452;-52
2022/12/18 07:18:15;;;;;;;0.20;0.20;;;;;;;-8.80;100.00;101707.56;5018051;28;20888;-52
2022/12/18 07:20:41;;;;;;;1.57;1.47;;;;;;;-8.82;100.00;101701.41;5021462;28;20487;-52
2022/12/18 07:23:07;;;;;;;0.30;0.30;;;;;;;-9.10;100.00;101716.53;5032011;28;20452;-52
2022/12/18 07:25:35;;;;;;;0.57;0.57;;;;;;;-8.90;100.00;101728.31;5024066;28;20896;-52
2022/12/18 07:28:02;;;;;;;10.50;1.23;;;;;;;-9.42;100.00;101731.31;5024851;28;20492;-52
2022/12/18 07:30:28;;;;;;;0.40;0.40;;;;;;;-9.22;100.00;101730.19;5032518;28;20456;-53
2022/12/18 07:32:55;;;;;;;1.77;1.77;;;;;;;-9.10;100.00;101737.16;5027294;28;20463;-52
2022/12/18 07:35:21;;;;;;;6.63;0.90;;;;;;;-8.90;100.00;101730.88;5013740;28;20455;-54
2022/12/18 07:37:50;;;;;;;1.63;1.53;;;;;;;-8.91;100.00;101739.38;5025551;28;20458;-51
2022/12/18 07:40:17;;;;;;;3.13;0.63;;;;;;;-8.83;100.00;101739.94;5018980;28;20464;-52
2022/12/18 07:42:43;;;;;;;0.87;0.87;;;;;;;-9.30;100.00;101745.09;5026566;28;20452;-51
2022/12/18 07:45:10;;;;;;;2.50;2.40;;;;;;;-9.38;100.00;101753.91;5029799;28;21069;-52
2022/12/18 07:47:37;;;;;;;2.20;2.10;;;;;;;-9.07;100.00;101750.22;5034016;28;20809;-51
2022/12/18 07:50:05;;;;;;;3.20;1.37;;;;;;;-9.01;100.00;101750.69;5020723;28;20471;-52
2022/12/18 07:52:31;;;;;;;5.20;2.73;;;;;;;-8.20;100.00;101738.41;5024493;28;20459;-53
2022/12/18 07:54:58;;;;;;;0.30;0.30;;;;;;;-8.09;100.00;101732.28;5032868;28;20451;-53
2022/12/18 07:57:24;;;;;;;0.50;0.50;;;;;;;-8.08;100.00;101735.81;5023265;28;20457;-53
2022/12/18 08:00:12;;;;;;;6.03;2.93;;;;;;;-7.30;100.00;101733.31;5025656;28;20508;-52
2022/12/18 08:02:38;;;;;;;0.30;0.30;;;;;;;-7.89;100.00;101725.06;5018975;28;20461;-53
2022/12/18 08:05:05;;;;;;;0.70;0.70;;;;;;;-8.09;100.00;101739.13;5026654;28;20496;-52
2022/12/18 08:07:32;;;;;;;0.40;0.40;;;;;;;-7.97;100.00;101752.88;5016530;28;20519;-52
2022/12/18 08:09:58;;;;;;;0.73;0.73;;;;;;;-7.71;100.00;101746.03;5022887;28;20475;-52
2022/12/18 08:12:25;;;;;;;1.53;1.43;;;;;;;-7.82;100.00;101756.50;5024710;28;20451;-52
2022/12/18 08:14:51;;;;;;;4.20;3.80;;;;;;;-7.81;100.00;101749.69;5029277;28;20455;-52
2022/12/18 08:17:19;;;;;;;5.00;2.53;;;;;;;-8.03;100.00;101749.00;5014568;28;20440;-52
2022/12/18 08:19:46;;;;;;;0.87;0.87;;;;;;;-8.03;100.00;101751.59;5027305;28;20519;-53
2022/12/18 08:22:12;;;;;;;0.27;0.27;;;;;;;-8.27;100.00;101737.88;5024681;28;20458;-52
2022/12/18 08:24:39;;;;;;;1.67;1.57;;;;;;;-7.98;100.00;101725.31;5023209;28;20511;-53
2022/12/18 08:27:05;;;;;;;0.20;0.20;;;;;;;-7.62;100.00;101726.91;5017859;28;20455;-53
2022/12/18 08:29:51;;;;;;;6.50;2.93;;;;;;;-7.68;100.00;101729.06;5019514;28;20841;-52
2022/12/18 08:32:18;;;;;;;2.07;2.03;;;;;;;-7.81;100.00;101729.94;5019505;28;20475;-52
2022/12/18 08:34:44;;;;;;;0.67;0.67;;;;;;;-7.65;100.00;101738.72;5034474;28;20444;-53
2022/12/18 08:37:11;;;;;;;2.77;2.63;;;;;;;-7.60;100.00;101730.50;5031040;28;20451;-52
2022/12/18 08:39:37;;;;;;;5.03;4.40;;;;;;;-7.43;100.00;101720.38;5033404;28;20487;-53
2022/12/18 08:44:48;;;;;;;2.93;1.50;;;;;;;-7.57;100.00;101712.63;5031048;28;20549;-51
2022/12/18 08:47:15;;;;;;;0.87;0.80;;;;;;;-7.61;100.00;101705.47;5031275;28;20456;-52
2022/12/18 08:49:41;;;;;;;1.40;1.40;;;;;;;-7.80;100.00;101707.63;5030788;28;21000;-52
2022/12/18 08:52:07;;;;;;;4.20;2.10;;;;;;;-7.52;100.00;101700.03;5026018;28;20460;-51
2022/12/18 08:54:34;;;;;;;2.60;2.60;;;;;;;-7.54;100.00;101692.19;5025270;28;20449;-52
2022/12/18 08:57:00;;;;;;;2.70;2.50;;;;;;;-7.42;100.00;101694.66;5029341;28;20451;-52
2022/12/18 08:59:30;;;;;;;10.07;2.53;;;;;;;-7.46;100.00;101697.84;5015025;28;20471;-52
2022/12/18 09:01:56;;;;;;;7.83;4.60;;;;;;;-7.63;100.00;101694.16;5021905;28;20443;-52
2022/12/18 09:04:23;;;;;;;5.60;2.63;;;;;;;-7.46;100.00;101697.84;5026528;28;20490;-52
2022/12/18 09:06:49;;;;;;;3.70;1.93;;;;;;;-7.38;100.00;101713.88;5021855;28;20459;-52
2022/12/18 09:09:16;;;;;;;3.03;1.33;;;;;;;-7.37;100.00;101711.38;5024007;28;20475;-51
2022/12/18 09:11:42;;;;;;;1.83;1.73;;;;;;;-7.43;100.00;101715.22;5028503;28;20459;-52
2022/12/18 09:14:10;;;;;;;9.20;3.83;;;;;;;-7.42;100.00;101702.41;5019581;28;20444;-52
2022/12/18 09:16:36;;;;;;;0.40;0.40;;;;;;;-7.31;100.00;101705.72;5028448;28;20456;-52
2022/12/18 09:19:04;;;;;;;3.60;3.50;;;;;;;-7.31;100.00;101716.03;5027485;28;20529;-53
2022/12/18 09:21:34;;;;;;;4.23;3.27;;;;;;;-7.40;100.00;101716.34;5022038;28;20538;-52
2022/12/18 09:24:03;;;;;;;16.03;2.83;;;;;;;-7.35;100.00;101727.84;5032238;28;20502;-53
2022/12/18 09:26:34;;;;;;;2.20;2.17;;;;;;;-7.39;100.00;101733.63;5026798;28;20543;-53
2022/12/18 09:29:02;;;;;;;6.13;2.30;;;;;;;-7.19;100.00;101729.75;5001541;28;20503;-53
2022/12/18 09:31:28;;;;;;;30.53;3.80;;;;;;;-7.06;100.00;101740.09;5028055;28;20456;-53
2022/12/18 09:33:56;;;;;;;3.13;2.93;;;;;;;-7.14;100.00;101735.22;5029825;28;20999;-53
2022/12/18 09:36:22;;;;;;;2.80;1.80;;;;;;;-6.81;100.00;101732.25;5032234;28;20456;-53
2022/12/18 09:38:49;;;;;;;7.00;2.67;;;;;;;-6.62;100.00;101739.47;5022166;28;20483;-53
2022/12/18 09:41:38;;;;;;;3.37;3.17;;;;;;;-6.63;100.00;101740.28;5027150;28;20947;-53
2022/12/18 09:44:18;;;;;;;0.40;0.40;;;;;;;-6.39;100.00;101734.06;5028639;28;20447;-53
2022/12/18 09:47:12;;;;;;;1.90;1.90;;;;;;;-6.47;100.00;101742.13;5038828;28;20875;-54
2022/12/18 09:49:45;;;;;;;0.50;0.50;;;;;;;-6.39;100.00;101749.59;5019668;28;20471;-54
2022/12/18 09:52:14;;;;;;;9.10;2.00;;;;;;;-6.28;100.00;101756.31;5024716;28;20482;-54
2022/12/18 09:54:49;;;;;;;4.27;1.80;;;;;;;-6.10;100.00;101753.09;5030305;28;20444;-53
2022/12/18 09:57:24;;;;;;;9.10;3.90;;;;;;;-6.25;100.00;101737.50;5008539;28;20459;-54
2022/12/18 09:59:58;;;;;;;0.60;0.60;;;;;;;-6.23;100.00;101747.94;5021314;28;20478;-54
2022/12/18 10:02:29;;;;;;;0.50;0.50;;;;;;;-6.15;100.00;101744.16;5025263;28;20486;-54
2022/12/18 10:05:11;;;;;;;1.80;1.13;;;;;;;-6.29;100.00;101744.19;5028111;28;20479;-54
2022/12/18 10:07:49;;;;;;;11.73;3.07;;;;;;;-6.19;100.00;101737.88;5022851;28;20535;-54
2022/12/18 10:10:31;;;;;;;10.77;4.07;;;;;;;-6.28;100.00;101726.97;5027780;28;20844;-54
2022/12/18 10:13:03;;;;;;;2.50;2.40;;;;;;;-6.17;100.00;101727.63;5027854;28;20478;-53
2022/12/18 10:15:44;;;;;;;2.23;1.80;;;;;;;-6.18;100.00;101720.66;5024196;28;20474;-54
2022/12/18 10:18:36;;;;;;;2.63;2.47;;;;;;;-6.54;100.00;101719.28;5025796;28;20456;-54
2022/12/18 10:21:10;;;;;;;7.60;3.23;;;;;;;-6.46;100.00;101711.19;5020745;28;20484;-54
2022/12/18 10:23:51;;;;;;;1.83;1.23;;;;;;;-6.81;100.00;101700.34;5033889;28;20501;-54
2022/12/18 10:26:18;;;;;;;1.70;1.60;;;;;;;-6.70;100.00;101710.56;5020180;28;20598;-54
2022/12/18 10:28:45;;;;;;;4.67;2.50;;;;;;;-6.78;100.00;101706.59;5022942;28;20468;-54
2022/12/18 10:31:20;;;;;;;2.53;2.43;;;;;;;-6.58;100.00;101702.66;5027396;28;20820;-54
2022/12/18 10:33:50;;;;;;;0.83;0.83;;;;;;;-6.17;100.00;101702.63;5026256;28;20937;-54
2022/12/18 10:36:16;;;;;;;8.03;2.57;;;;;;;-6.46;100.00;101712.88;5020538;28;20444;-54
2022/12/18 10:38:43;;;;;;;1.90;1.60;;;;;;;-6.21;100.00;101723.06;5020839;28;20498;-54
2022/12/18 10:41:20;;;;;;;2.80;2.70;;;;;;;-6.02;100.00;101711.38;5027125;28;20507;-55
2022/12/18 10:43:47;;;;;;;2.60;1.10;;;;;;;-6.00;100.00;101719.22;5027182;28;20870;-55
2022/12/18 10:46:17;;;;;;;2.13;1.03;;;;;;;-6.30;100.00;101713.06;5031443;28;20483;-55
2022/12/18 10:48:46;;;;;;;4.07;2.80;;;;;;;-6.49;100.00;101711.00;5031772;28;20460;-54
2022/12/18 10:51:39;;;;;;;4.27;4.00;;;;;;;-6.23;100.00;101730.75;5019334;28;20857;-54
2022/12/18 10:54:16;;;;;;;0.90;0.90;;;;;;;-6.10;100.00;101732.38;5029184;28;20464;-55
2022/12/18 10:56:43;;;;;;;3.67;1.80;;;;;;;-5.92;100.00;101728.31;5019986;28;20938;-55
2022/12/18 10:59:13;;;;;;;3.40;3.03;;;;;;;-5.56;100.00;101720.94;5008357;28;20468;-54
2022/12/18 11:01:57;;;;;;;1.90;1.87;;;;;;;-5.89;100.00;101719.81;5026784;28;20448;-54
2022/12/18 11:04:25;;;;;;;4.77;2.63;;;;;;;-5.77;100.00;101713.66;5024213;28;20451;-54
2022/12/18 11:06:56;;;;;;;3.20;3.00;;;;;;;-5.71;100.00;101708.88;5019825;28;20456;-54
2022/12/18 11:09:44;;;;;;;2.67;2.57;;;;;;;-5.47;100.00;101718.91;5021904;28;21052;-54
2022/12/18 11:12:10;;;;;;;5.00;3.30;;;;;;;-5.22;100.00;101706.53;5019609;28;20456;-54
2022/12/18 11:14:47;;;;;;;1.47;1.33;;;;;;;-4.96;100.00;101710.63;5019654;28;20459;-54
2022/12/18 11:17:32;;;;;;;3.43;2.50;;;;;;;-4.36;100.00;101706.19;5024383;28;20829;-54
2022/12/18 11:20:00;;;;;;;2.17;2.17;;;;;;;-4.92;100.00;101706.53;5026569;28;20470;-55
2022/12/18 11:22:30;;;;;;;8.00;5.80;;;;;;;-4.72;100.00;101707.63;5024732;28;20452;-55
2022/12/18 11:25:02;;;;;;;2.33;0.97;;;;;;;-4.97;100.00;101697.59;5026812;28;20579;-55
2022/12/18 11:27:54;;;;;;;1.70;1.60;;;;;;;-4.90;100.00;101695.44;5026326;28;20985;-55
2022/12/18 11:30:25;;;;;;;19.83;3.57;;;;;;;-5.20;100.00;101710.16;5023311;28;20875;-55
2022/12/18 11:33:12;;;;;;;5.60;4.13;;;;;;;-5.53;100.00;101715.94;5019287;28;20546;-55
2022/12/18 11:35:50;;;;;;;2.70;1.10;;;;;;;-5.64;100.00;101706.63;5019408;28;20445;-55
2022/12/18 11:38:31;;;;;;;3.83;3.63;;;;;;;-5.58;100.00;101699.25;5023801;28;20522;-54